sensor_id;sensor_type;location;lat;lon;timestamp;pressure;altitude;pressure_sealevel;temperature;humidity
50123;BME280;36021;48.670;6.184;2023-05-10T00:00:19;98623.53;;;14.09;100.00
50123;BME280;36021;48.670;6.184;2023-05-10T00:02:45;98609.19;;;14.07;100.00
50123;BME280;36021;48.670;6.184;2023-05-10T00:05:11;98608.38;;;14.06;100.00
50123;BME280;36021;48.670;6.184;2023-05-10T00:07:36;98605.59;;;14.15;100.00
50123;BME280;36021;48.670;6.184;2023-05-10T00:10:02;98599.22;;;14.15;100.00
50123;BME280;36021;48.670;6.184;2023-05-10T00:12:27;98591.53;;;14.20;100.00
50123;BME280;36021;48.670;6.184;2023-05-10T00:14:53;98591.53;;;14.20;100.00
50123;BME280;36021;48.670;6.184;2023-05-10T00:19:20;98593.06;;;14.09;100.00
50123;BME280;36021;48.670;6.184;2023-05-10T00:21:47;98597.63;;;14.05;100.00
50123;BME280;36021;48.670;6.184;2023-05-10T00:24:14;98599.06;;;13.94;100.00
50123;BME280;36021;48.670;6.184;2023-05-10T00:26:41;98599.75;;;13.91;100.00
50123;BME280;36021;48.670;6.184;2023-05-10T00:29:08;98599.06;;;13.94;100.00
50123;BME280;36021;48.670;6.184;2023-05-10T00:31:35;98601.06;;;13.85;100.00
50123;BME280;36021;48.670;6.184;2023-05-10T00:34:01;98606.75;;;13.88;100.00
50123;BME280;36021;48.670;6.184;2023-05-10T00:36:27;98606.13;;;13.74;100.00
50123;BME280;36021;48.670;6.184;2023-05-10T00:38:53;98611.50;;;13.71;100.00
50123;BME280;36021;48.670;6.184;2023-05-10T00:41:19;98604.97;;;13.75;100.00
50123;BME280;36021;48.670;6.184;2023-05-10T00:43:45;98611.50;;;13.71;100.00
50123;BME280;36021;48.670;6.184;2023-05-10T00:46:11;98613.75;;;13.69;100.00
50123;BME280;36021;48.670;6.184;2023-05-10T00:48:38;98613.28;;;13.67;100.00
50123;BME280;36021;48.670;6.184;2023-05-10T00:51:03;98613.75;;;13.69;100.00
50123;BME280;36021;48.670;6.184;2023-05-10T00:53:31;98609.53;;;13.63;100.00
50123;BME280;36021;48.670;6.184;2023-05-10T00:55:58;98613.59;;;13.56;100.00
50123;BME280;36021;48.670;6.184;2023-05-10T00:58:25;98607.06;;;13.52;100.00
50123;BME280;36021;48.670;6.184;2023-05-10T01:00:55;98614.06;;;13.58;100.00
50123;BME280;36021;48.670;6.184;2023-05-10T01:03:22;98608.22;;;13.60;100.00
50123;BME280;36021;48.670;6.184;2023-05-10T01:05:50;98615.88;;;13.63;100.00
50123;BME280;36021;48.670;6.184;2023-05-10T01:08:15;98616.38;;;13.74;100.00
50123;BME280;36021;48.670;6.184;2023-05-10T01:10:42;98618.16;;;13.78;100.00
50123;BME280;36021;48.670;6.184;2023-05-10T01:13:09;98616.53;;;13.86;100.00
50123;BME280;36021;48.670;6.184;2023-05-10T01:15:35;98610.81;;;13.91;100.00
50123;BME280;36021;48.670;6.184;2023-05-10T01:18:01;98601.84;;;13.94;100.00
50123;BME280;36021;48.670;6.184;2023-05-10T01:20:43;98594.53;;;13.81;100.00
50123;BME280;36021;48.670;6.184;2023-05-10T01:23:31;98596.34;;;13.77;100.00
50123;BME280;36021;48.670;6.184;2023-05-10T01:26:16;98592.41;;;13.78;100.00
50123;BME280;36021;48.670;6.184;2023-05-10T01:29:05;98583.97;;;13.74;100.00
50123;BME280;36021;48.670;6.184;2023-05-10T01:34:35;98598.59;;;13.75;100.00
50123;BME280;36021;48.670;6.184;2023-05-10T01:37:15;98606.91;;;13.75;100.00
50123;BME280;36021;48.670;6.184;2023-05-10T01:39:55;98597.28;;;13.46;100.00
50123;BME280;36021;48.670;6.184;2023-05-10T01:42:26;98590.63;;;13.47;100.00
50123;BME280;36021;48.670;6.184;2023-05-10T01:47:38;98603.31;;;13.31;100.00
50123;BME280;36021;48.670;6.184;2023-05-10T01:50:15;98601.38;;;13.40;100.00
50123;BME280;36021;48.670;6.184;2023-05-10T01:52:44;98598.91;;;13.39;100.00
50123;BME280;36021;48.670;6.184;2023-05-10T01:55:15;98580.81;;;13.24;100.00
50123;BME280;36021;48.670;6.184;2023-05-10T01:57:44;98595.63;;;13.20;100.00
50123;BME280;36021;48.670;6.184;2023-05-10T02:00:13;98601.19;;;13.28;100.00
50123;BME280;36021;48.670;6.184;2023-05-10T02:02:45;98606.56;;;13.33;100.00
50123;BME280;36021;48.670;6.184;2023-05-10T02:05:17;98613.38;;;13.27;100.00
50123;BME280;36021;48.670;6.184;2023-05-10T02:07:43;98615.34;;;13.35;100.00
50123;BME280;36021;48.670;6.184;2023-05-10T02:10:13;98612.91;;;13.34;100.00
50123;BME280;36021;48.670;6.184;2023-05-10T02:12:42;98617.16;;;13.48;100.00
50123;BME280;36021;48.670;6.184;2023-05-10T02:15:10;98614.56;;;13.52;100.00
50123;BME280;36021;48.670;6.184;2023-05-10T02:17:37;98608.19;;;13.51;100.00
50123;BME280;36021;48.670;6.184;2023-05-10T02:20:06;98609.84;;;13.70;100.00
50123;BME280;36021;48.670;6.184;2023-05-10T02:22:35;98603.66;;;13.81;100.00
50123;BME280;36021;48.670;6.184;2023-05-10T02:25:02;98605.78;;;13.84;100.00
50123;BME280;36021;48.670;6.184;2023-05-10T02:27:30;98605.78;;;13.93;100.00
50123;BME280;36021;48.670;6.184;2023-05-10T02:29:57;98601.03;;;14.02;100.00
50123;BME280;36021;48.670;6.184;2023-05-10T02:32:24;98601.69;;;13.99;100.00
50123;BME280;36021;48.670;6.184;2023-05-10T02:34:52;98603.34;;;14.00;100.00
50123;BME280;36021;48.670;6.184;2023-05-10T02:37:19;98595.50;;;14.02;100.00
50123;BME280;36021;48.670;6.184;2023-05-10T02:39:47;98601.69;;;13.99;100.00
50123;BME280;36021;48.670;6.184;2023-05-10T02:42:17;98598.59;;;14.00;100.00
50123;BME280;36021;48.670;6.184;2023-05-10T02:44:45;98602.34;;;13.96;100.00
50123;BME280;36021;48.670;6.184;2023-05-10T02:47:14;98596.31;;;14.02;100.00
50123;BME280;36021;48.670;6.184;2023-05-10T02:49:40;98603.81;;;14.02;100.00
50123;BME280;36021;48.670;6.184;2023-05-10T02:52:06;98600.22;;;14.01;100.00
50123;BME280;36021;48.670;6.184;2023-05-10T02:54:39;98608.56;;;13.76;100.00
50123;BME280;36021;48.670;6.184;2023-05-10T02:57:07;98606.13;;;13.74;100.00
50123;BME280;36021;48.670;6.184;2023-05-10T02:59:36;98605.31;;;13.74;100.00
50123;BME280;36021;48.670;6.184;2023-05-10T03:02:02;98601.22;;;13.71;100.00
50123;BME280;36021;48.670;6.184;2023-05-10T03:04:29;98617.69;;;13.68;100.00
50123;BME280;36021;48.670;6.184;2023-05-10T03:06:56;98619.47;;;13.64;100.00
50123;BME280;36021;48.670;6.184;2023-05-10T03:09:23;98629.69;;;13.46;100.00
50123;BME280;36021;48.670;6.184;2023-05-10T03:15:13;98635.75;;;13.56;100.00
50123;BME280;36021;48.670;6.184;2023-05-10T03:17:56;98624.03;;;13.60;100.00
50123;BME280;36021;48.670;6.184;2023-05-10T03:20:40;98633.66;;;13.71;100.00
50123;BME280;36021;48.670;6.184;2023-05-10T03:23:13;98626.31;;;13.57;100.00
50123;BME280;36021;48.670;6.184;2023-05-10T03:25:44;98645.81;;;13.44;100.00
50123;BME280;36021;48.670;6.184;2023-05-10T03:28:12;98640.94;;;13.49;100.00
50123;BME280;36021;48.670;6.184;2023-05-10T03:30:38;98649.59;;;13.56;100.00
50123;BME280;36021;48.670;6.184;2023-05-10T03:33:06;98643.72;;;13.49;100.00
50123;BME280;36021;48.670;6.184;2023-05-10T03:35:35;98651.22;;;13.57;100.00
50123;BME280;36021;48.670;6.184;2023-05-10T03:38:00;98648.78;;;13.56;100.00
50123;BME280;36021;48.670;6.184;2023-05-10T03:40:26;98640.63;;;13.68;100.00
50123;BME280;36021;48.670;6.184;2023-05-10T03:42:55;98646.81;;;13.65;100.00
50123;BME280;36021;48.670;6.184;2023-05-10T03:45:20;98653.34;;;13.69;100.00
50123;BME280;36021;48.670;6.184;2023-05-10T03:47:46;98648.94;;;13.68;100.00
50123;BME280;36021;48.670;6.184;2023-05-10T03:50:12;98642.75;;;13.54;100.00
50123;BME280;36021;48.670;6.184;2023-05-10T03:52:37;98637.69;;;13.56;100.00
50123;BME280;36021;48.670;6.184;2023-05-10T03:55:05;98640.91;;;13.32;100.00
50123;BME280;36021;48.670;6.184;2023-05-10T03:57:32;98638.16;;;13.41;100.00
50123;BME280;36021;48.670;6.184;2023-05-10T04:00:00;98643.72;;;13.49;100.00
50123;BME280;36021;48.670;6.184;2023-05-10T04:02:25;98648.59;;;13.52;100.00
50123;BME280;36021;48.670;6.184;2023-05-10T04:04:52;98652.34;;;13.56;100.00
50123;BME280;36021;48.670;6.184;2023-05-10T04:07:19;98649.25;;;13.49;100.00
50123;BME280;36021;48.670;6.184;2023-05-10T04:09:44;98648.78;;;13.56;100.00
50123;BME280;36021;48.670;6.184;2023-05-10T04:12:10;98649.13;;;13.63;100.00
50123;BME280;36021;48.670;6.184;2023-05-10T04:14:35;98647.47;;;13.62;100.00
50123;BME280;36021;48.670;6.184;2023-05-10T04:17:01;98641.94;;;13.62;100.00
50123;BME280;36021;48.670;6.184;2023-05-10T04:19:32;98648.28;;;13.63;100.00
50123;BME280;36021;48.670;6.184;2023-05-10T04:21:58;98646.66;;;13.62;100.00
50123;BME280;36021;48.670;6.184;2023-05-10T04:24:24;98638.34;;;13.62;100.00
50123;BME280;36021;48.670;6.184;2023-05-10T04:26:50;98646.34;;;13.54;100.00
50123;BME280;36021;48.670;6.184;2023-05-10T04:29:17;98650.88;;;13.50;100.00
50123;BME280;36021;48.670;6.184;2023-05-10T04:31:43;98654.59;;;13.37;100.00
50123;BME280;36021;48.670;6.184;2023-05-10T04:34:10;98654.75;;;13.32;100.00
50123;BME280;36021;48.670;6.184;2023-05-10T04:36:36;98665.09;;;13.10;100.00
50123;BME280;36021;48.670;6.184;2023-05-10T04:39:03;98664.97;;;13.15;100.00
50123;BME280;36021;48.670;6.184;2023-05-10T04:41:29;98667.72;;;13.15;100.00
50123;BME280;36021;48.670;6.184;2023-05-10T04:43:55;98674.91;;;13.24;100.00
50123;BME280;36021;48.670;6.184;2023-05-10T04:46:20;98675.69;;;13.16;100.00
50123;BME280;36021;48.670;6.184;2023-05-10T04:48:46;98678.78;;;13.15;100.00
50123;BME280;36021;48.670;6.184;2023-05-10T04:51:11;98677.47;;;13.12;100.00
50123;BME280;36021;48.670;6.184;2023-05-10T04:53:38;98677.75;;;13.02;100.00
50123;BME280;36021;48.670;6.184;2023-05-10T04:56:03;98674.34;;;13.05;100.00
50123;BME280;36021;48.670;6.184;2023-05-10T04:58:30;98670.41;;;13.06;100.00
50123;BME280;36021;48.670;6.184;2023-05-10T05:00:56;98683.75;;;12.95;100.00
50123;BME280;36021;48.670;6.184;2023-05-10T05:03:24;98686.81;;;12.94;100.00
50123;BME280;36021;48.670;6.184;2023-05-10T05:05:49;98689.63;;;12.72;100.00
50123;BME280;36021;48.670;6.184;2023-05-10T05:08:16;98698.56;;;12.69;100.00
50123;BME280;36021;48.670;6.184;2023-05-10T05:10:42;98704.03;;;12.91;100.00
50123;BME280;36021;48.670;6.184;2023-05-10T05:13:08;98711.56;;;12.99;100.00
50123;BME280;36021;48.670;6.184;2023-05-10T05:15:34;98709.31;;;13.01;100.00
50123;BME280;36021;48.670;6.184;2023-05-10T05:17:59;98716.94;;;12.95;100.00
50123;BME280;36021;48.670;6.184;2023-05-10T05:20:25;98716.38;;;13.16;100.00
50123;BME280;36021;48.670;6.184;2023-05-10T05:22:52;98723.19;;;12.79;100.00
50123;BME280;36021;48.670;6.184;2023-05-10T05:25:20;98733.47;;;12.87;100.00
50123;BME280;36021;48.670;6.184;2023-05-10T05:27:47;98742.94;;;12.94;100.00
50123;BME280;36021;48.670;6.184;2023-05-10T05:30:12;98741.13;;;12.90;100.00
50123;BME280;36021;48.670;6.184;2023-05-10T05:32:38;98748.66;;;12.98;100.00
50123;BME280;36021;48.670;6.184;2023-05-10T05:35:05;98747.75;;;12.80;100.00
50123;BME280;36021;48.670;6.184;2023-05-10T05:37:31;98733.75;;;12.54;100.00
50123;BME280;36021;48.670;6.184;2023-05-10T05:39:57;98766.16;;;12.40;100.00
50123;BME280;36021;48.670;6.184;2023-05-10T05:42:23;98762.28;;;12.41;100.00
50123;BME280;36021;48.670;6.184;2023-05-10T05:44:48;98758.25;;;12.47;100.00
50123;BME280;36021;48.670;6.184;2023-05-10T05:47:14;98770.06;;;12.39;100.00
50123;BME280;36021;48.670;6.184;2023-05-10T05:49:40;98755.59;;;12.20;100.00
50123;BME280;36021;48.670;6.184;2023-05-10T05:52:05;98769.97;;;12.31;100.00
50123;BME280;36021;48.670;6.184;2023-05-10T05:54:31;98773.06;;;12.29;100.00
50123;BME280;36021;48.670;6.184;2023-05-10T05:56:58;98771.03;;;12.21;100.00
50123;BME280;36021;48.670;6.184;2023-05-10T05:59:26;98776.53;;;12.35;100.00
50123;BME280;36021;48.670;6.184;2023-05-10T06:01:52;98779.00;;;12.36;100.00
50123;BME280;36021;48.670;6.184;2023-05-10T06:04:18;98780.34;;;12.47;100.00
50123;BME280;36021;48.670;6.184;2023-05-10T06:06:44;98774.97;;;12.42;100.00
50123;BME280;36021;48.670;6.184;2023-05-10T06:09:11;98762.94;;;12.47;100.00
50123;BME280;36021;48.670;6.184;2023-05-10T06:11:37;98779.28;;;12.35;100.00
50123;BME280;36021;48.670;6.184;2023-05-10T06:14:04;98777.78;;;12.29;100.00
50123;BME280;36021;48.670;6.184;2023-05-10T06:16:32;98787.56;;;12.35;100.00
50123;BME280;36021;48.670;6.184;2023-05-10T06:19:02;98772.28;;;12.15;100.00
50123;BME280;36021;48.670;6.184;2023-05-10T06:21:29;98789.31;;;12.31;100.00
50123;BME280;36021;48.670;6.184;2023-05-10T06:23:55;98788.13;;;12.23;100.00
50123;BME280;36021;48.670;6.184;2023-05-10T06:26:21;98791.41;;;12.25;100.00
50123;BME280;36021;48.670;6.184;2023-05-10T06:28:49;98791.41;;;12.12;100.00
50123;BME280;36021;48.670;6.184;2023-05-10T06:31:15;98797.50;;;12.00;100.00
50123;BME280;36021;48.670;6.184;2023-05-10T06:33:41;98805.56;;;12.10;100.00
50123;BME280;36021;48.670;6.184;2023-05-10T06:36:07;98803.44;;;12.07;100.00
50123;BME280;36021;48.670;6.184;2023-05-10T06:38:34;98810.47;;;12.13;100.00
50123;BME280;36021;48.670;6.184;2023-05-10T06:41:00;98812.59;;;12.16;100.00
50123;BME280;36021;48.670;6.184;2023-05-10T06:43:26;98818.13;;;12.16;100.00
50123;BME280;36021;48.670;6.184;2023-05-10T06:45:54;98816.09;;;12.08;100.00
50123;BME280;36021;48.670;6.184;2023-05-10T06:48:19;98808.22;;;12.01;100.00
50123;BME280;36021;48.670;6.184;2023-05-10T06:50:45;98810.56;;;11.94;100.00
50123;BME280;36021;48.670;6.184;2023-05-10T06:53:13;98827.16;;;11.94;100.00
50123;BME280;36021;48.670;6.184;2023-05-10T06:55:39;98808.47;;;11.78;100.00
50123;BME280;36021;48.670;6.184;2023-05-10T06:58:05;98812.34;;;11.90;100.00
50123;BME280;36021;48.670;6.184;2023-05-10T07:00:31;98807.66;;;11.91;100.00
50123;BME280;36021;48.670;6.184;2023-05-10T07:02:58;98810.09;;;11.92;100.00
50123;BME280;36021;48.670;6.184;2023-05-10T07:05:24;98809.66;;;11.99;100.00
50123;BME280;36021;48.670;6.184;2023-05-10T07:07:51;98810.69;;;11.89;100.00
50123;BME280;36021;48.670;6.184;2023-05-10T07:10:17;98820.72;;;11.99;100.00
50123;BME280;36021;48.670;6.184;2023-05-10T07:12:43;98818.28;;;11.97;100.00
50123;BME280;36021;48.670;6.184;2023-05-10T07:15:09;98821.03;;;11.97;100.00
50123;BME280;36021;48.670;6.184;2023-05-10T07:17:34;98822.44;;;11.95;100.00
50123;BME280;36021;48.670;6.184;2023-05-10T07:20:01;98817.25;;;12.07;100.00
50123;BME280;36021;48.670;6.184;2023-05-10T07:22:28;98809.84;;;12.16;100.00
50123;BME280;36021;48.670;6.184;2023-05-10T07:24:54;98810.06;;;12.06;100.00
50123;BME280;36021;48.670;6.184;2023-05-10T07:27:19;98801.50;;;11.94;100.00
50123;BME280;36021;48.670;6.184;2023-05-10T07:29:47;98820.25;;;12.33;100.00
50123;BME280;36021;48.670;6.184;2023-05-10T07:32:12;98811.13;;;12.32;100.00
50123;BME280;36021;48.670;6.184;2023-05-10T07:34:40;98815.25;;;12.21;100.00
50123;BME280;36021;48.670;6.184;2023-05-10T07:37:05;98821.22;;;12.01;100.00
50123;BME280;36021;48.670;6.184;2023-05-10T07:39:31;98811.63;;;11.85;100.00
50123;BME280;36021;48.670;6.184;2023-05-10T07:41:57;98808.22;;;12.01;100.00
50123;BME280;36021;48.670;6.184;2023-05-10T07:44:22;98802.81;;;12.10;100.00
50123;BME280;36021;48.670;6.184;2023-05-10T07:46:48;98795.91;;;12.21;100.00
50123;BME280;36021;48.670;6.184;2023-05-10T07:49:14;98804.22;;;12.43;100.00
50123;BME280;36021;48.670;6.184;2023-05-10T07:51:41;98803.00;;;12.49;100.00
50123;BME280;36021;48.670;6.184;2023-05-10T07:54:08;98803.19;;;12.53;100.00
50123;BME280;36021;48.670;6.184;2023-05-10T07:56:34;98810.13;;;12.50;100.00
50123;BME280;36021;48.670;6.184;2023-05-10T07:59:03;98819.81;;;12.39;100.00
50123;BME280;36021;48.670;6.184;2023-05-10T08:01:30;98824.31;;;12.35;100.00
50123;BME280;36021;48.670;6.184;2023-05-10T08:03:57;98819.59;;;12.49;100.00
50123;BME280;36021;48.670;6.184;2023-05-10T08:06:23;98816.81;;;12.72;100.00
50123;BME280;36021;48.670;6.184;2023-05-10T08:08:49;98819.97;;;13.01;100.00
50123;BME280;36021;48.670;6.184;2023-05-10T08:11:16;98808.59;;;13.25;100.00
50123;BME280;36021;48.670;6.184;2023-05-10T08:13:43;98803.63;;;13.13;100.00
50123;BME280;36021;48.670;6.184;2023-05-10T08:16:09;98806.94;;;13.24;100.00
50123;BME280;36021;48.670;6.184;2023-05-10T08:18:34;98809.09;;;13.35;100.00
50123;BME280;36021;48.670;6.184;2023-05-10T08:21:01;98800.13;;;13.30;100.00
50123;BME280;36021;48.670;6.184;2023-05-10T08:23:28;98796.44;;;13.12;100.00
50123;BME280;36021;48.670;6.184;2023-05-10T08:25:55;98787.88;;;13.53;100.00
50123;BME280;36021;48.670;6.184;2023-05-10T08:28:21;98795.53;;;13.65;100.00
50123;BME280;36021;48.670;6.184;2023-05-10T08:30:47;98790.72;;;13.79;100.00
50123;BME280;36021;48.670;6.184;2023-05-10T08:33:13;98790.41;;;13.89;100.00
50123;BME280;36021;48.670;6.184;2023-05-10T08:35:40;98786.53;;;14.07;100.00
50123;BME280;36021;48.670;6.184;2023-05-10T08:38:07;98790.94;;;13.99;100.00
50123;BME280;36021;48.670;6.184;2023-05-10T08:40:33;98787.81;;;14.01;100.00
50123;BME280;36021;48.670;6.184;2023-05-10T08:43:06;98791.28;;;14.15;100.00
50123;BME280;36021;48.670;6.184;2023-05-10T08:45:33;98792.94;;;14.16;100.00
50123;BME280;36021;48.670;6.184;2023-05-10T08:48:02;98795.34;;;14.09;100.00
50123;BME280;36021;48.670;6.184;2023-05-10T08:50:31;98811.00;;;14.05;100.00
50123;BME280;36021;48.670;6.184;2023-05-10T08:53:00;98804.78;;;13.99;100.00
50123;BME280;36021;48.670;6.184;2023-05-10T08:55:27;98793.03;;;13.94;100.00
50123;BME280;36021;48.670;6.184;2023-05-10T08:57:53;98802.03;;;14.08;100.00
50123;BME280;36021;48.670;6.184;2023-05-10T09:00:19;98809.03;;;14.14;100.00
50123;BME280;36021;48.670;6.184;2023-05-10T09:02:45;98803.50;;;14.14;100.00
50123;BME280;36021;48.670;6.184;2023-05-10T09:05:12;98797.81;;;14.28;100.00
50123;BME280;36021;48.670;6.184;2023-05-10T09:07:39;98798.69;;;14.45;100.00
50123;BME280;36021;48.670;6.184;2023-05-10T09:10:05;98799.84;;;14.79;100.00
50123;BME280;36021;48.670;6.184;2023-05-10T09:12:31;98791.34;;;14.67;100.00
50123;BME280;36021;48.670;6.184;2023-05-10T09:14:59;98797.41;;;14.43;100.00
50123;BME280;36021;48.670;6.184;2023-05-10T09:17:25;98791.28;;;14.15;100.00
50123;BME280;36021;48.670;6.184;2023-05-10T09:20:02;98798.03;;;14.48;100.00
50123;BME280;36021;48.670;6.184;2023-05-10T09:22:31;98797.22;;;14.56;100.00
50123;BME280;36021;48.670;6.184;2023-05-10T09:25:06;98792.81;;;14.38;100.00
50123;BME280;36021;48.670;6.184;2023-05-10T09:27:33;98796.41;;;14.47;100.00
50123;BME280;36021;48.670;6.184;2023-05-10T09:30:01;98790.19;;;14.85;100.00
50123;BME280;36021;48.670;6.184;2023-05-10T09:32:41;98789.16;;;15.06;100.00
50123;BME280;36021;48.670;6.184;2023-05-10T09:35:13;98794.94;;;15.39;100.00
50123;BME280;36021;48.670;6.184;2023-05-10T09:37:40;98790.34;;;14.88;100.00
50123;BME280;36021;48.670;6.184;2023-05-10T09:40:08;98786.47;;;14.72;100.00
50123;BME280;36021;48.670;6.184;2023-05-10T09:42:36;98794.75;;;14.89;100.00
50123;BME280;36021;48.670;6.184;2023-05-10T09:45:05;98790.97;;;15.02;100.00
50123;BME280;36021;48.670;6.184;2023-05-10T09:47:35;98789.41;;;15.39;100.00
50123;BME280;36021;48.670;6.184;2023-05-10T09:50:03;98784.81;;;15.52;100.00
50123;BME280;36021;48.670;6.184;2023-05-10T09:52:46;98781.25;;;15.26;100.00
50123;BME280;36021;48.670;6.184;2023-05-10T09:55:12;98781.50;;;15.03;100.00
50123;BME280;36021;48.670;6.184;2023-05-10T09:57:38;98776.72;;;15.21;100.00
50123;BME280;36021;48.670;6.184;2023-05-10T10:00:05;98784.03;;;15.34;100.00
50123;BME280;36021;48.670;6.184;2023-05-10T10:02:39;98784.88;;;15.26;100.00
50123;BME280;36021;48.670;6.184;2023-05-10T10:05:08;98777.16;;;15.40;100.00
50123;BME280;36021;48.670;6.184;2023-05-10T10:07:34;98772.44;;;15.32;100.00
50123;BME280;36021;48.670;6.184;2023-05-10T10:10:01;98772.28;;;15.29;100.00
50123;BME280;36021;48.670;6.184;2023-05-10T10:12:27;98780.44;;;15.25;100.00
50123;BME280;36021;48.670;6.184;2023-05-10T10:14:53;98776.72;;;15.12;100.00
50123;BME280;36021;48.670;6.184;2023-05-10T10:17:21;98773.53;;;14.85;100.00
50123;BME280;36021;48.670;6.184;2023-05-10T10:19:48;98769.00;;;14.72;100.00
50123;BME280;36021;48.670;6.184;2023-05-10T10:22:16;98781.06;;;14.58;100.00
50123;BME280;36021;48.670;6.184;2023-05-10T10:24:42;98774.53;;;14.72;100.00
50123;BME280;36021;48.670;6.184;2023-05-10T10:27:21;98764.22;;;14.89;100.00
50123;BME280;36021;48.670;6.184;2023-05-10T10:32:32;98758.59;;;15.61;100.00
50123;BME280;36021;48.670;6.184;2023-05-10T10:35:02;98755.28;;;15.77;100.00
50123;BME280;36021;48.670;6.184;2023-05-10T10:37:54;98758.53;;;15.79;100.00
50123;BME280;36021;48.670;6.184;2023-05-10T10:40:26;98754.44;;;15.38;100.00
50123;BME280;36021;48.670;6.184;2023-05-10T10:42:53;98759.66;;;15.48;100.00
50123;BME280;36021;48.670;6.184;2023-05-10T10:45:20;98769.56;;;15.87;100.00
50123;BME280;36021;48.670;6.184;2023-05-10T10:47:46;98759.44;;;15.91;100.00
50123;BME280;36021;48.670;6.184;2023-05-10T10:50:11;98763.13;;;15.75;100.00
50123;BME280;36021;48.670;6.184;2023-05-10T10:52:43;98760.16;;;15.80;100.00
50123;BME280;36021;48.670;6.184;2023-05-10T10:55:27;98754.41;;;15.85;100.00
50123;BME280;36021;48.670;6.184;2023-05-10T10:57:56;98764.66;;;15.93;100.00
50123;BME280;36021;48.670;6.184;2023-05-10T11:00:35;98760.97;;;16.09;100.00
50123;BME280;36021;48.670;6.184;2023-05-10T11:03:12;98774.00;;;16.38;100.00
50123;BME280;36021;48.670;6.184;2023-05-10T11:05:46;98761.97;;;16.05;100.00
50123;BME280;36021;48.670;6.184;2023-05-10T11:08:39;98775.25;;;15.99;100.00
50123;BME280;36021;48.670;6.184;2023-05-10T11:11:07;98766.00;;;15.87;100.00
50123;BME280;36021;48.670;6.184;2023-05-10T11:13:43;98786.28;;;15.41;100.00
50123;BME280;36021;48.670;6.184;2023-05-10T11:16:12;98779.94;;;15.32;100.00
50123;BME280;36021;48.670;6.184;2023-05-10T11:18:38;98769.78;;;15.44;100.00
50123;BME280;36021;48.670;6.184;2023-05-10T11:21:04;98779.88;;;15.57;100.00
50123;BME280;36021;48.670;6.184;2023-05-10T11:26:13;98792.31;;;15.51;100.00
50123;BME280;36021;48.670;6.184;2023-05-10T11:28:44;98786.91;;;15.46;100.00
50123;BME280;36021;48.670;6.184;2023-05-10T11:31:12;98781.34;;;15.55;100.00
50123;BME280;36021;48.670;6.184;2023-05-10T11:33:46;98783.50;;;15.49;100.00
50123;BME280;36021;48.670;6.184;2023-05-10T11:36:14;98782.81;;;14.97;100.00
50123;BME280;36021;48.670;6.184;2023-05-10T11:38:40;98796.22;;;14.87;100.00
50123;BME280;36021;48.670;6.184;2023-05-10T11:41:10;98793.16;;;14.63;100.00
50123;BME280;36021;48.670;6.184;2023-05-10T11:43:41;98788.56;;;14.67;100.00
50123;BME280;36021;48.670;6.184;2023-05-10T11:46:12;98779.56;;;14.87;100.00
50123;BME280;36021;48.670;6.184;2023-05-10T11:48:41;98785.31;;;14.82;100.00
50123;BME280;36021;48.670;6.184;2023-05-10T11:51:10;98789.88;;;14.78;100.00
50123;BME280;36021;48.670;6.184;2023-05-10T11:53:36;98786.41;;;14.89;100.00
50123;BME280;36021;48.670;6.184;2023-05-10T11:56:10;98785.31;;;14.82;100.00
50123;BME280;36021;48.670;6.184;2023-05-10T11:58:38;98788.38;;;14.97;100.00
50123;BME280;36021;48.670;6.184;2023-05-10T12:01:07;98785.06;;;15.12;100.00
50123;BME280;36021;48.670;6.184;2023-05-10T12:03:33;98785.72;;;15.18;100.00
50123;BME280;36021;48.670;6.184;2023-05-10T12:06:01;98796.75;;;15.44;100.00
50123;BME280;36021;48.670;6.184;2023-05-10T12:08:29;98790.09;;;15.74;100.00
50123;BME280;36021;48.670;6.184;2023-05-10T12:11:09;98788.66;;;15.97;100.00
50123;BME280;36021;48.670;6.184;2023-05-10T12:13:43;98786.09;;;15.92;100.00
50123;BME280;36021;48.670;6.184;2023-05-10T12:16:23;98776.94;;;15.92;100.00
50123;BME280;36021;48.670;6.184;2023-05-10T12:18:49;98779.50;;;16.26;100.00
50123;BME280;36021;48.670;6.184;2023-05-10T12:21:18;98777.47;;;16.35;100.00
50123;BME280;36021;48.670;6.184;2023-05-10T12:23:49;98782.56;;;16.75;100.00
50123;BME280;36021;48.670;6.184;2023-05-10T12:26:16;98784.72;;;16.69;100.00
50123;BME280;36021;48.670;6.184;2023-05-10T12:28:43;98780.50;;;16.84;100.00
50123;BME280;36021;48.670;6.184;2023-05-10T12:31:09;98776.19;;;17.07;100.00
50123;BME280;36021;48.670;6.184;2023-05-10T12:33:40;98772.72;;;17.22;100.00
50123;BME280;36021;48.670;6.184;2023-05-10T12:36:09;98762.50;;;17.14;100.00
50123;BME280;36021;48.670;6.184;2023-05-10T12:38:37;98770.91;;;17.38;100.00
50123;BME280;36021;48.670;6.184;2023-05-10T12:41:08;98773.59;;;17.47;100.00
50123;BME280;36021;48.670;6.184;2023-05-10T12:43:35;98775.84;;;17.65;100.00
50123;BME280;36021;48.670;6.184;2023-05-10T12:46:12;98767.84;;;17.88;100.00
50123;BME280;36021;48.670;6.184;2023-05-10T12:48:39;98754.00;;;18.04;100.00
50123;BME280;36021;48.670;6.184;2023-05-10T12:51:06;98762.22;;;18.25;100.00
50123;BME280;36021;48.670;6.184;2023-05-10T12:53:35;98762.75;;;18.54;100.00
50123;BME280;36021;48.670;6.184;2023-05-10T12:56:01;98765.69;;;19.01;100.00
50123;BME280;36021;48.670;6.184;2023-05-10T12:58:27;98760.31;;;18.65;100.00
50123;BME280;36021;48.670;6.184;2023-05-10T13:00:53;98754.69;;;19.99;100.00
50123;BME280;36021;48.670;6.184;2023-05-10T13:03:19;98756.41;;;21.57;100.00
50123;BME280;36021;48.670;6.184;2023-05-10T13:05:46;98741.50;;;22.80;100.00
50123;BME280;36021;48.670;6.184;2023-05-10T13:08:12;98741.66;;;22.35;100.00
50123;BME280;36021;48.670;6.184;2023-05-10T13:10:38;98742.69;;;23.13;97.58